createdAt,value
2018-07-25T00:00:40.728Z,99487.22
2018-07-25T00:04:45.139Z,99484.33
2018-07-25T00:08:49.253Z,99485.25
2018-07-25T00:12:53.711Z,99486.73
2018-07-25T00:16:58.043Z,99480.45
2018-07-25T00:21:02.190Z,99484.73
2018-07-25T00:25:06.450Z,99482.02
2018-07-25T00:29:10.693Z,99486.78
2018-07-25T00:33:15.040Z,99488.45
2018-07-25T00:37:19.424Z,99483.44
2018-07-25T00:41:23.657Z,99494.44
2018-07-25T00:45:28.083Z,99492.52
2018-07-25T00:49:32.563Z,99488.84
2018-07-25T00:53:36.767Z,99488.80
2018-07-25T00:57:43.168Z,99484.15
2018-07-25T01:01:47.534Z,99483.05
2018-07-25T01:05:51.690Z,99489.92
2018-07-25T01:09:56.718Z,99495.94
2018-07-25T01:14:00.803Z,99489.94
2018-07-25T01:18:04.940Z,99493.34
2018-07-25T01:22:08.864Z,99491.79
2018-07-25T01:26:12.861Z,99499.78
2018-07-25T01:30:16.872Z,99497.41
2018-07-25T01:34:20.871Z,99499.38
2018-07-25T01:38:24.934Z,99497.74
2018-07-25T01:42:28.968Z,99502.30
2018-07-25T01:46:33.080Z,99502.30
2018-07-25T01:50:37.283Z,99502.86
2018-07-25T01:54:41.436Z,99500.73
2018-07-25T01:58:45.453Z,99509.39
2018-07-25T02:02:49.321Z,99499.84
2018-07-25T02:06:53.299Z,99504.40
2018-07-25T02:10:57.169Z,99501.97
2018-07-25T02:15:01.184Z,99502.61
2018-07-25T02:19:05.207Z,99508.98
2018-07-25T02:23:09.386Z,99498.87
2018-07-25T02:27:13.325Z,99509.23
2018-07-25T02:31:17.360Z,99512.06
2018-07-25T02:35:21.423Z,99511.28
2018-07-25T02:39:25.570Z,99517.73
2018-07-25T02:43:29.569Z,99512.69
2018-07-25T02:47:33.644Z,99511.50
2018-07-25T02:51:37.790Z,99513.39
2018-07-25T02:55:41.683Z,99511.34
2018-07-25T02:59:46.678Z,99510.44
2018-07-25T03:03:51.366Z,99514.64
2018-07-25T03:07:55.419Z,99514.79
2018-07-25T03:11:59.438Z,99516.69
2018-07-25T03:16:04.974Z,99515.41
2018-07-25T03:20:09.128Z,99524.73
2018-07-25T03:24:13.125Z,99529.61
2018-07-25T03:28:17.791Z,99535.12
2018-07-25T03:32:21.906Z,99530.72
2018-07-25T03:36:25.984Z,99536.59
2018-07-25T03:40:30.768Z,99536.16
2018-07-25T03:44:34.770Z,99538.91
2018-07-25T03:48:38.724Z,99551.59
2018-07-25T03:52:42.871Z,99549.84
2018-07-25T03:56:47.578Z,99554.34
2018-07-25T04:00:51.662Z,99548.98
2018-07-25T04:04:55.778Z,99545.34
2018-07-25T04:08:59.708Z,99550.63
2018-07-25T04:13:03.828Z,99556.41
2018-07-25T04:17:08.445Z,99551.45
2018-07-25T04:21:12.510Z,99553.58
2018-07-25T04:25:16.582Z,99554.85
2018-07-25T04:29:20.697Z,99555.16
2018-07-25T04:33:24.973Z,99559.04
2018-07-25T04:37:29.716Z,99570.55
2018-07-25T04:41:33.793Z,99566.77
2018-07-25T04:45:38.072Z,99564.20
2018-07-25T04:49:42.451Z,99567.98
2018-07-25T04:53:46.625Z,99573.92
2018-07-25T04:57:50.734Z,99576.62
2018-07-25T05:01:55.755Z,99583.41
2018-07-25T05:05:59.850Z,99582.56
2018-07-25T05:10:04.737Z,99587.04
2018-07-25T05:14:10.355Z,99586.16
2018-07-25T05:18:14.471Z,99596.74
2018-07-25T05:22:19.196Z,99590.66
2018-07-25T05:26:23.390Z,99596.42
2018-07-25T05:30:28.398Z,99592.28
2018-07-25T05:34:33.288Z,99594.55
2018-07-25T05:38:41.181Z,99596.94
2018-07-25T05:42:47.747Z,99593.28
2018-07-25T05:46:52.618Z,99597.66
2018-07-25T05:50:57.120Z,99602.19
2018-07-25T05:55:02.585Z,99598.44
2018-07-25T05:59:08.183Z,99604.12
2018-07-25T06:03:20.298Z,99614.57
2018-07-25T06:07:29.978Z,99612.20
2018-07-25T06:11:36.118Z,99608.02
2018-07-25T06:24:57.149Z,99613.94
2018-07-25T06:33:35.133Z,99617.66
2018-07-25T06:37:47.945Z,99623.42
2018-07-25T06:41:55.829Z,99629.36
2018-07-25T06:46:02.621Z,99629.49
2018-07-25T06:50:11.724Z,99635.42
2018-07-25T06:54:18.218Z,99627.16
2018-07-25T06:58:25.578Z,99632.22
2018-07-25T07:02:42.564Z,99635.77
2018-07-25T07:06:48.745Z,99630.25
2018-07-25T07:21:25.817Z,99625.19
2018-07-25T07:25:29.357Z,99628.75
2018-07-25T07:29:32.782Z,99637.69
2018-07-25T07:33:36.261Z,99636.63
2018-07-25T07:37:39.730Z,99630.39
2018-07-25T07:41:43.190Z,99621.12
2018-07-25T07:45:46.693Z,99621.63
2018-07-25T07:49:50.174Z,99618.26
2018-07-25T07:53:53.655Z,99623.72
2018-07-25T07:57:57.159Z,99621.23
2018-07-25T08:02:00.903Z,99623.81
2018-07-25T08:06:04.363Z,99617.92
2018-07-25T08:10:07.855Z,99615.98
2018-07-25T08:14:11.320Z,99611.70
2018-07-25T08:18:14.816Z,99611.81
2018-07-25T08:22:18.256Z,99611.08
2018-07-25T08:26:21.748Z,99620.11
2018-07-25T08:30:25.277Z,99609.61
2018-07-25T08:34:28.817Z,99605.66
2018-07-25T08:38:37.896Z,99613.33
2018-07-25T08:42:41.437Z,99606.97
2018-07-25T08:46:44.948Z,99602.66
2018-07-25T08:50:48.629Z,99603.89
2018-07-25T08:54:52.164Z,99601.30
2018-07-25T08:58:55.677Z,99600.33
2018-07-25T09:02:59.134Z,99597.48
2018-07-25T09:07:02.830Z,99595.53
2018-07-25T09:11:06.303Z,99596.87
2018-07-25T09:15:09.900Z,99594.89
2018-07-25T09:19:13.323Z,99588.27
2018-07-25T09:23:17.810Z,99582.81
2018-07-25T09:27:21.232Z,99585.16
2018-07-25T09:31:24.866Z,99590.08
2018-07-25T09:35:28.374Z,99579.91
2018-07-25T09:39:31.977Z,99571.84
2018-07-25T09:43:35.686Z,99572.09
2018-07-25T09:47:39.199Z,99576.27
2018-07-25T09:51:42.778Z,99575.64
2018-07-25T09:55:46.334Z,99569.85
2018-07-25T09:59:49.770Z,99557.40
2018-07-25T10:03:53.243Z,99556.64
2018-07-25T10:07:57.032Z,99556.39
2018-07-25T10:12:00.731Z,99552.23
2018-07-25T10:16:04.414Z,99560.52
2018-07-25T10:20:08.094Z,99563.86
2018-07-25T10:24:11.802Z,99545.95
2018-07-25T10:28:15.499Z,99557.67
2018-07-25T10:32:19.193Z,99544.19
2018-07-25T10:36:22.878Z,99541.31
2018-07-25T10:40:27.519Z,99540.84
2018-07-25T10:44:31.303Z,99539.58
2018-07-25T10:48:34.997Z,99537.58
2018-07-25T10:52:38.687Z,99529.30
2018-07-25T10:56:42.413Z,99524.42
2018-07-25T11:00:45.903Z,99522.77
2018-07-25T11:04:51.113Z,99527.52
2018-07-25T11:08:55.041Z,99510.28
2018-07-25T11:12:58.649Z,99509.64
2018-07-25T11:17:02.133Z,99512.81
2018-07-25T11:21:06.229Z,99505.59
2018-07-25T11:25:10.236Z,99500.12
2018-07-25T11:29:14.537Z,99496.81
2018-07-25T11:33:18.214Z,99490.33
2018-07-25T11:37:22.060Z,99490.81
2018-07-25T11:41:25.913Z,99478.95
2018-07-25T11:45:30.096Z,99481.88
2018-07-25T11:49:34.235Z,99467.28
2018-07-25T11:53:38.642Z,99479.88
2018-07-25T11:57:42.239Z,99476.17
2018-07-25T12:01:46.049Z,99479.20
2018-07-25T12:05:49.647Z,99480.08
2018-07-25T12:09:53.650Z,99483.48
2018-07-25T12:13:57.379Z,99476.85
2018-07-25T12:18:01.202Z,99469.97
2018-07-25T12:26:56.111Z,99474.11
2018-07-25T12:30:59.833Z,99464.88
2018-07-25T12:35:03.612Z,99456.97
2018-07-25T12:39:09.671Z,99449.47
2018-07-25T12:43:13.633Z,99451.03
2018-07-25T12:47:17.131Z,99446.79
2018-07-25T12:51:20.848Z,99441.06
2018-07-25T12:55:24.317Z,99433.09
2018-07-25T12:59:28.041Z,99431.38
2018-07-25T13:03:31.781Z,99431.69
2018-07-25T13:07:35.570Z,99428.52
2018-07-25T13:11:39.335Z,99423.79
2018-07-25T13:15:43.283Z,99419.84
2018-07-25T13:19:47.001Z,99418.28
2018-07-25T13:23:50.460Z,99419.72
2018-07-25T13:27:54.589Z,99416.77
2018-07-25T13:31:58.648Z,99421.73
2018-07-25T13:36:02.222Z,99415.81
2018-07-25T13:40:06.536Z,99414.05
2018-07-25T13:44:10.816Z,99411.97
2018-07-25T13:48:14.552Z,99407.51
2018-07-25T13:52:18.203Z,99398.30
2018-07-25T13:56:21.994Z,99391.29
2018-07-25T14:00:25.687Z,99399.66
2018-07-25T14:04:29.309Z,99389.75
2018-07-25T14:08:33.194Z,99387.36
2018-07-25T14:12:36.860Z,99385.20
2018-07-25T14:16:40.558Z,99384.94
2018-07-25T14:20:44.685Z,99391.28
2018-07-25T14:24:48.369Z,99382.41
2018-07-25T14:28:52.142Z,99385.13
2018-07-25T14:32:55.787Z,99374.38
2018-07-25T14:36:59.446Z,99377.33
2018-07-25T14:41:03.193Z,99372.10
2018-07-25T14:45:07.146Z,99367.02
2018-07-25T14:49:10.843Z,99362.65
2018-07-25T14:53:14.557Z,99356.20
2018-07-25T14:57:18.760Z,99348.60
2018-07-25T15:01:22.562Z,99359.21
2018-07-25T15:05:26.209Z,99368.37
2018-07-25T15:20:35.512Z,99375.89
2018-07-25T15:24:42.615Z,99385.05
2018-07-25T15:33:36.117Z,99382.64
2018-07-25T15:42:29.214Z,99383.52
2018-07-25T15:51:16.182Z,99390.55
2018-07-25T15:55:30.525Z,99387.72
2018-07-25T15:59:39.397Z,99387.20
2018-07-25T16:03:43.523Z,99381.63
2018-07-25T18:22:11.077Z,99381.75
2018-07-25T18:26:14.703Z,99396.00
2018-07-25T18:30:18.202Z,99428.87
2018-07-25T18:34:21.691Z,99436.10
2018-07-25T18:38:25.169Z,99443.63
2018-07-25T18:42:28.663Z,99457.09
2018-07-25T18:46:32.355Z,99473.27
2018-07-25T18:50:35.833Z,99478.36
2018-07-25T18:54:39.310Z,99469.61
2018-07-25T18:58:42.793Z,99468.35
2018-07-25T19:02:46.239Z,99474.83
2018-07-25T19:06:49.778Z,99478.29
2018-07-25T19:10:53.239Z,99501.08
2018-07-25T19:15:01.995Z,99500.63
2018-07-25T19:19:05.443Z,99505.03
2018-07-25T19:23:08.884Z,99506.30
2018-07-25T19:27:12.336Z,99518.88
2018-07-25T19:31:15.763Z,99518.28
2018-07-25T19:35:19.258Z,99524.12
2018-07-25T19:39:22.733Z,99521.11
2018-07-25T19:43:26.204Z,99530.92
2018-07-25T19:47:29.679Z,99537.50
2018-07-25T19:51:33.187Z,99541.59
2018-07-25T19:55:36.619Z,99550.54
2018-07-25T19:59:40.197Z,99542.61
2018-07-25T20:03:43.627Z,99549.77
2018-07-25T20:07:47.069Z,99554.62
2018-07-25T20:11:50.545Z,99568.87
2018-07-25T20:15:57.318Z,99562.52
2018-07-25T20:20:00.775Z,99569.20
2018-07-25T20:24:04.270Z,99562.59
2018-07-25T20:28:07.722Z,99562.71
2018-07-25T20:32:11.327Z,99557.38
2018-07-25T20:36:14.823Z,99554.88
2018-07-25T20:40:18.298Z,99555.06
2018-07-25T20:44:21.883Z,99545.44
2018-07-25T20:48:25.415Z,99553.73
2018-07-25T20:52:28.879Z,99563.48
2018-07-25T20:56:32.338Z,99576.20
2018-07-25T21:00:36.756Z,99570.02
2018-07-25T21:04:40.160Z,99573.75
2018-07-25T21:08:43.663Z,99590.50
2018-07-25T21:12:47.088Z,99596.59
2018-07-25T21:16:50.553Z,99593.68
2018-07-25T21:20:54.003Z,99593.05
2018-07-25T21:24:57.455Z,99602.34
2018-07-25T21:29:00.922Z,99598.64
2018-07-25T21:33:04.387Z,99606.06
2018-07-25T21:37:07.837Z,99604.08
2018-07-25T21:41:11.312Z,99600.01
2018-07-25T21:45:14.770Z,99601.64
2018-07-25T21:49:18.187Z,99602.13
2018-07-25T21:53:22.674Z,99593.70
2018-07-25T21:57:26.143Z,99600.00
2018-07-25T22:01:29.582Z,99599.92
2018-07-25T22:05:33.042Z,99597.16
2018-07-25T22:09:36.471Z,99594.86
2018-07-25T22:13:44.079Z,99593.59
2018-07-25T22:17:47.524Z,99598.09
2018-07-25T22:21:51.050Z,99597.23
2018-07-25T22:25:54.524Z,99605.36
2018-07-25T22:29:57.988Z,99599.66
2018-07-25T22:34:01.410Z,99595.25
2018-07-25T22:38:05.038Z,99596.26
2018-07-25T22:42:08.502Z,99605.34
2018-07-25T22:46:11.934Z,99609.03
2018-07-25T22:50:15.362Z,99609.03
2018-07-25T22:54:18.843Z,99603.77
2018-07-25T22:58:22.309Z,99604.30
2018-07-25T23:02:25.752Z,99605.26
2018-07-25T23:06:29.290Z,99603.98
2018-07-25T23:10:32.746Z,99606.81
2018-07-25T23:14:36.325Z,99607.84
2018-07-25T23:18:39.770Z,99606.16
2018-07-25T23:22:55.090Z,99605.78
2018-07-25T23:26:58.558Z,99600.08
2018-07-25T23:31:02.067Z,99594.41
2018-07-25T23:35:05.818Z,99587.06
2018-07-25T23:39:10.437Z,99583.31
2018-07-25T23:43:13.905Z,99586.06
2018-07-25T23:47:17.358Z,99583.45
2018-07-25T23:51:20.766Z,99588.03
2018-07-25T23:55:24.226Z,99585.34
2018-07-25T23:59:27.646Z,99589.37
